Time;durP1;ratioP1;P1;durP2;ratioP2;P2;SDS_P1;SDS_P2;PMS_P1;PMS_P2;Temp;Humidity;BMP_temperature;BMP_pressure;BME280_temperature;BME280_humidity;BME280_pressure;Samples;Min_cycle;Max_cycle;Signal;HPM_P1;HPM_P2
2021/07/28 00:00:11;;;;;;;3.80;2.83;;;22.50;99.90;;;;;;4931967;29;20043;-76
2021/07/28 00:02:42;;;;;;;4.55;3.00;;;22.60;99.90;;;;;;4918587;28;20024;-77
2021/07/28 00:05:09;;;;;;;5.13;2.90;;;22.50;99.90;;;;;;4914766;29;20029;-76
2021/07/28 00:07:35;;;;;;;4.30;2.45;;;22.50;99.90;;;;;;4920745;28;20551;-77
2021/07/28 00:10:00;;;;;;;4.70;2.63;;;22.50;99.90;;;;;;4933470;29;20098;-76
2021/07/28 00:12:26;;;;;;;4.72;2.65;;;22.50;99.90;;;;;;4933176;29;20107;-75
2021/07/28 00:14:52;;;;;;;3.55;2.60;;;22.50;99.90;;;;;;4933367;29;20368;-78
2021/07/28 00:17:18;;;;;;;4.57;2.63;;;22.50;99.90;;;;;;4932939;29;20032;-76
2021/07/28 00:24:59;;;;;;;3.35;2.58;;;22.50;99.90;;;;;;4923752;29;20043;-78
2021/07/28 00:27:25;;;;;;;3.90;2.53;;;22.50;99.90;;;;;;4922047;29;20032;-76
2021/07/28 00:29:50;;;;;;;3.72;2.70;;;22.50;99.90;;;;;;4930881;29;20392;-76
2021/07/28 00:32:16;;;;;;;3.50;2.58;;;22.50;99.90;;;;;;4931661;29;20038;-77
2021/07/28 00:34:41;;;;;;;3.55;2.67;;;22.50;99.90;;;;;;4932471;28;20020;-75
2021/07/28 00:37:07;;;;;;;2.88;2.40;;;22.40;99.90;;;;;;4917760;28;20044;-75
2021/07/28 00:39:33;;;;;;;3.85;2.67;;;22.40;99.90;;;;;;4912379;29;20039;-79
2021/07/28 00:41:58;;;;;;;5.60;2.45;;;22.40;99.90;;;;;;4913795;28;20159;-73
2021/07/28 00:44:24;;;;;;;8.27;3.35;;;22.40;99.90;;;;;;4913575;28;20028;-77
2021/07/28 00:46:49;;;;;;;3.78;2.72;;;22.40;99.90;;;;;;4924870;29;20121;-75
2021/07/28 00:49:15;;;;;;;4.60;2.88;;;22.40;99.90;;;;;;4946883;29;20031;-73
2021/07/28 00:51:41;;;;;;;5.82;2.78;;;22.40;99.90;;;;;;4932546;29;20078;-75
2021/07/28 00:54:07;;;;;;;4.70;2.83;;;22.40;99.90;;;;;;4932435;29;20497;-75
2021/07/28 00:56:35;;;;;;;5.55;2.83;;;22.40;99.90;;;;;;4932275;28;20048;-73
2021/07/28 00:59:01;;;;;;;3.67;2.88;;;22.40;99.90;;;;;;4932583;28;20016;-76
2021/07/28 01:01:27;;;;;;;4.13;2.88;;;22.40;99.90;;;;;;4921198;29;20040;-76
2021/07/28 01:03:53;;;;;;;3.92;2.63;;;22.40;99.90;;;;;;4928483;29;20018;-75
2021/07/28 01:06:19;;;;;;;5.40;2.65;;;22.40;99.90;;;;;;4932405;29;20028;-77
2021/07/28 01:08:45;;;;;;;4.90;3.22;;;22.40;99.90;;;;;;4918616;29;20079;-75
2021/07/28 01:11:11;;;;;;;4.47;3.15;;;22.40;99.90;;;;;;4913766;28;20032;-75
2021/07/28 01:13:37;;;;;;;6.85;2.72;;;22.40;99.90;;;;;;4912976;29;20063;-75
2021/07/28 01:16:19;;;;;;;3.40;2.60;;;22.30;99.90;;;;;;4913274;29;20047;-75
2021/07/28 01:18:44;;;;;;;6.18;2.78;;;22.40;99.90;;;;;;4913662;29;20427;-76
2021/07/28 01:21:11;;;;;;;5.43;2.63;;;22.30;99.90;;;;;;4913561;29;20040;-74
2021/07/28 01:23:37;;;;;;;4.60;2.90;;;22.30;99.90;;;;;;4927479;29;20047;-77
2021/07/28 01:26:04;;;;;;;3.70;2.47;;;22.40;99.90;;;;;;4913197;29;20067;-76
2021/07/28 01:28:33;;;;;;;3.95;2.97;;;22.30;99.90;;;;;;4913845;28;20032;-74
2021/07/28 01:30:59;;;;;;;3.92;2.70;;;22.30;99.90;;;;;;4912914;29;20036;-74
2021/07/28 01:33:27;;;;;;;4.65;2.50;;;22.30;99.90;;;;;;4912606;29;20040;-78
2021/07/28 01:35:53;;;;;;;4.05;2.60;;;22.30;99.90;;;;;;4912337;29;20033;-77
2021/07/28 01:38:25;;;;;;;4.85;2.75;;;22.30;99.90;;;;;;4912791;29;20484;-77
2021/07/28 01:40:58;;;;;;;5.95;2.78;;;22.30;99.90;;;;;;4912811;29;20036;-76
2021/07/28 01:43:25;;;;;;;3.88;2.75;;;22.30;99.90;;;;;;4912740;29;20024;-76
2021/07/28 01:45:51;;;;;;;3.90;2.33;;;22.30;99.90;;;;;;4912852;28;20468;-75
2021/07/28 01:48:16;;;;;;;5.53;2.97;;;22.30;99.90;;;;;;4912703;29;20039;-74
2021/07/28 01:50:45;;;;;;;3.80;2.88;;;22.30;99.90;;;;;;4925213;29;20066;-75
2021/07/28 01:53:12;;;;;;;3.88;2.80;;;22.30;99.90;;;;;;4932032;28;20089;-76
2021/07/28 01:55:38;;;;;;;3.95;2.58;;;22.30;99.90;;;;;;4931150;29;20040;-76
2021/07/28 01:58:04;;;;;;;3.35;2.35;;;22.30;99.90;;;;;;4931594;29;20031;-77
2021/07/28 02:00:29;;;;;;;4.07;2.50;;;22.20;99.90;;;;;;4930306;29;20078;-76
2021/07/28 02:03:02;;;;;;;4.07;2.40;;;22.20;99.90;;;;;;4930884;28;20514;-78
2021/07/28 02:05:32;;;;;;;4.32;2.85;;;22.20;99.90;;;;;;4931097;29;20055;-79
2021/07/28 02:08:02;;;;;;;4.32;2.90;;;22.20;99.90;;;;;;4931604;29;20059;-77
2021/07/28 02:10:29;;;;;;;6.05;2.67;;;22.20;99.90;;;;;;4930918;29;20039;-77
2021/07/28 02:12:55;;;;;;;3.55;2.45;;;22.20;99.90;;;;;;4931627;29;20055;-77
2021/07/28 02:15:23;;;;;;;4.22;2.60;;;22.20;99.90;;;;;;4930709;29;20082;-77
2021/07/28 02:17:50;;;;;;;4.07;2.42;;;22.20;99.90;;;;;;4929738;29;20129;-78
2021/07/28 02:20:16;;;;;;;3.28;2.10;;;22.20;99.90;;;;;;4930828;29;20487;-76
2021/07/28 02:22:42;;;;;;;3.90;2.70;;;22.20;99.90;;;;;;4929353;28;20510;-78
2021/07/28 02:25:09;;;;;;;4.20;2.72;;;22.20;99.90;;;;;;4921379;29;20034;-77
2021/07/28 02:27:34;;;;;;;2.97;2.28;;;22.20;99.90;;;;;;4931213;28;20028;-78
2021/07/28 02:30:00;;;;;;;3.53;2.10;;;22.20;99.90;;;;;;4914821;28;20040;-76
2021/07/28 02:32:26;;;;;;;3.95;2.85;;;22.20;99.90;;;;;;4911801;29;20025;-76
2021/07/28 02:34:52;;;;;;;5.97;2.72;;;22.20;99.90;;;;;;4912199;29;20036;-80
2021/07/28 02:37:18;;;;;;;4.72;2.33;;;22.20;99.90;;;;;;4912196;28;20040;-76
2021/07/28 02:39:43;;;;;;;3.72;2.70;;;22.20;99.90;;;;;;4911968;29;20035;-75
2021/07/28 02:42:09;;;;;;;4.32;2.83;;;22.20;99.90;;;;;;4912580;28;20032;-76
2021/07/28 02:44:34;;;;;;;5.43;2.55;;;22.20;99.90;;;;;;4919192;29;20027;-76
2021/07/28 02:47:00;;;;;;;2.58;2.20;;;22.10;99.90;;;;;;4924929;28;20032;-78
2021/07/28 02:49:25;;;;;;;3.65;2.58;;;22.10;99.90;;;;;;4916688;28;20035;-76
2021/07/28 02:51:51;;;;;;;4.82;2.30;;;22.10;99.90;;;;;;4920224;28;20031;-77
2021/07/28 02:54:21;;;;;;;3.75;2.03;;;22.10;99.90;;;;;;4928454;29;20513;-78
2021/07/28 02:56:46;;;;;;;3.45;2.50;;;22.10;99.90;;;;;;4934503;28;20040;-78
2021/07/28 02:59:12;;;;;;;5.63;2.50;;;22.10;99.90;;;;;;4934628;29;20024;-77
2021/07/28 03:01:37;;;;;;;3.50;2.40;;;22.10;99.90;;;;;;4915814;29;20048;-79
2021/07/28 03:04:03;;;;;;;7.15;2.47;;;22.10;99.90;;;;;;4933090;28;20032;-79
2021/07/28 03:06:29;;;;;;;3.35;2.55;;;22.10;99.90;;;;;;4933547;29;20042;-79
2021/07/28 03:08:55;;;;;;;4.10;2.40;;;22.10;99.90;;;;;;4932750;29;20024;-77
2021/07/28 03:11:20;;;;;;;6.00;3.20;;;22.10;99.90;;;;;;4932799;29;20086;-78
2021/07/28 03:13:46;;;;;;;4.10;2.60;;;22.10;99.90;;;;;;4924017;28;20066;-79
2021/07/28 03:16:12;;;;;;;3.50;2.58;;;22.10;99.90;;;;;;4915492;29;20044;-78
2021/07/28 03:18:37;;;;;;;4.03;2.40;;;22.10;99.90;;;;;;4914853;29;20024;-78
2021/07/28 03:21:03;;;;;;;5.22;2.85;;;22.00;99.90;;;;;;4914904;29;20044;-79
2021/07/28 03:23:29;;;;;;;5.47;2.85;;;22.00;99.90;;;;;;4914585;29;20032;-79
2021/07/28 03:25:54;;;;;;;4.55;2.28;;;22.10;99.90;;;;;;4914693;28;20512;-77
2021/07/28 03:28:20;;;;;;;4.57;2.55;;;22.10;99.90;;;;;;4915861;29;20055;-75
2021/07/28 03:30:46;;;;;;;3.15;2.35;;;22.00;99.90;;;;;;4914905;28;20097;-77
2021/07/28 03:33:11;;;;;;;4.28;2.00;;;22.10;99.90;;;;;;4915063;29;20475;-78
2021/07/28 03:35:37;;;;;;;3.42;2.30;;;22.00;99.90;;;;;;4914585;29;20500;-77
2021/07/28 03:38:03;;;;;;;4.00;2.53;;;22.00;99.90;;;;;;4914653;29;20032;-76
2021/07/28 03:40:29;;;;;;;5.95;3.25;;;22.00;99.90;;;;;;4914557;29;20051;-76
2021/07/28 03:42:54;;;;;;;7.53;2.60;;;22.00;99.90;;;;;;4929190;29;20038;-77
2021/07/28 03:45:20;;;;;;;7.03;2.50;;;22.00;99.90;;;;;;4925911;29;20102;-77
2021/07/28 03:47:46;;;;;;;8.27;3.30;;;22.00;99.90;;;;;;4933777;29;20133;-79
2021/07/28 03:50:12;;;;;;;5.18;2.45;;;22.00;99.90;;;;;;4925714;29;20036;-77
2021/07/28 03:52:37;;;;;;;3.85;2.55;;;22.00;99.90;;;;;;4914388;29;20480;-81
2021/07/28 03:55:03;;;;;;;5.47;2.55;;;22.00;99.90;;;;;;4914611;29;20372;-80
2021/07/28 03:57:29;;;;;;;6.55;2.42;;;22.00;99.90;;;;;;4913931;28;20079;-77
2021/07/28 03:59:54;;;;;;;4.38;2.33;;;21.90;99.90;;;;;;4914658;29;20028;-80
2021/07/28 04:02:20;;;;;;;4.45;2.40;;;21.90;99.90;;;;;;4914667;28;20032;-75
2021/07/28 04:04:46;;;;;;;7.35;2.40;;;22.00;99.90;;;;;;4931840;28;20063;-76
2021/07/28 04:07:12;;;;;;;5.38;2.40;;;21.90;99.90;;;;;;4933496;29;20028;-78
2021/07/28 04:09:38;;;;;;;4.20;2.17;;;21.90;99.90;;;;;;4933240;29;20102;-77
2021/07/28 04:12:04;;;;;;;4.82;2.38;;;21.90;99.90;;;;;;4933685;28;20035;-78
2021/07/28 04:14:29;;;;;;;3.95;2.45;;;21.90;99.90;;;;;;4933219;29;20031;-76
2021/07/28 04:16:55;;;;;;;6.65;2.63;;;21.90;99.90;;;;;;4932340;29;20113;-77
2021/07/28 04:19:20;;;;;;;5.13;2.00;;;21.90;99.90;;;;;;4933087;29;20020;-77
2021/07/28 04:21:46;;;;;;;4.43;2.40;;;21.90;99.90;;;;;;4933309;29;20035;-77
2021/07/28 04:24:12;;;;;;;4.43;1.90;;;21.90;99.90;;;;;;4933460;28;20113;-76
2021/07/28 04:26:37;;;;;;;5.03;1.95;;;21.90;99.90;;;;;;4920583;29;20119;-75
2021/07/28 04:29:03;;;;;;;4.95;2.10;;;21.90;99.90;;;;;;4933015;28;20484;-76
2021/07/28 04:31:29;;;;;;;4.45;2.08;;;21.90;99.90;;;;;;4919044;29;20049;-76
2021/07/28 04:33:54;;;;;;;7.93;2.20;;;21.90;99.90;;;;;;4913935;29;20032;-75
2021/07/28 04:36:20;;;;;;;4.05;2.13;;;21.90;99.90;;;;;;4913522;29;20054;-77
2021/07/28 04:38:45;;;;;;;3.08;1.92;;;21.90;99.90;;;;;;4914026;29;20028;-79
2021/07/28 04:41:11;;;;;;;6.00;1.90;;;21.80;99.90;;;;;;4920613;28;20036;-79
2021/07/28 04:43:36;;;;;;;4.45;2.58;;;21.80;99.90;;;;;;4913894;29;20020;-79
2021/07/28 04:46:03;;;;;;;5.38;2.10;;;21.90;99.90;;;;;;4913720;29;20036;-78
2021/07/28 04:48:29;;;;;;;5.55;1.98;;;21.90;99.90;;;;;;4913512;28;20086;-79
2021/07/28 04:50:57;;;;;;;5.53;2.33;;;21.80;99.90;;;;;;4913580;29;20039;-80
2021/07/28 04:53:28;;;;;;;5.88;2.53;;;21.80;99.90;;;;;;4913561;29;20032;-79
2021/07/28 04:55:54;;;;;;;3.97;2.33;;;21.80;99.90;;;;;;4914050;29;20048;-79
2021/07/28 04:58:20;;;;;;;6.60;2.13;;;21.80;99.90;;;;;;4928676;28;20063;-78
2021/07/28 05:00:47;;;;;;;3.25;2.00;;;21.80;99.90;;;;;;4932830;29;20519;-79
2021/07/28 05:03:13;;;;;;;4.70;2.33;;;21.80;99.90;;;;;;4931156;29;20027;-80
2021/07/28 05:05:39;;;;;;;4.28;1.90;;;21.80;99.90;;;;;;4932329;29;20114;-77
2021/07/28 05:08:04;;;;;;;3.83;2.00;;;21.80;99.90;;;;;;4932727;29;20594;-77
2021/07/28 05:10:30;;;;;;;5.80;2.00;;;21.80;99.90;;;;;;4930656;29;20391;-79
2021/07/28 05:12:55;;;;;;;5.63;2.08;;;21.80;99.90;;;;;;4932550;29;20494;-80
2021/07/28 05:15:21;;;;;;;3.65;1.75;;;21.80;99.90;;;;;;4931421;29;20506;-80
2021/07/28 05:17:47;;;;;;;3.72;2.03;;;21.80;99.90;;;;;;4932254;29;20032;-79
2021/07/28 05:20:13;;;;;;;3.45;1.85;;;21.80;99.90;;;;;;4919461;29;20028;-81
2021/07/28 05:22:39;;;;;;;3.22;2.03;;;21.80;99.90;;;;;;4913587;29;20112;-80
2021/07/28 05:25:05;;;;;;;7.93;2.00;;;21.80;99.90;;;;;;4920439;29;20115;-79
2021/07/28 05:27:31;;;;;;;4.32;1.95;;;21.80;99.90;;;;;;4920134;28;20028;-81
2021/07/28 05:29:57;;;;;;;7.07;2.33;;;21.80;99.90;;;;;;4930222;29;20032;-80
2021/07/28 05:32:23;;;;;;;3.58;2.00;;;21.80;99.90;;;;;;4927946;28;20562;-79
2021/07/28 05:34:52;;;;;;;4.18;2.40;;;21.70;99.90;;;;;;4912839;29;20427;-79
2021/07/28 05:37:19;;;;;;;4.75;2.10;;;21.80;99.90;;;;;;4912975;29;20431;-79
2021/07/28 05:39:45;;;;;;;5.97;2.45;;;21.80;99.90;;;;;;4913854;28;20243;-79
2021/07/28 05:42:11;;;;;;;4.35;1.75;;;21.70;99.90;;;;;;4927433;29;20059;-80
2021/07/28 05:44:37;;;;;;;4.05;1.83;;;21.70;99.90;;;;;;4931353;29;20063;-80
2021/07/28 05:47:03;;;;;;;4.35;2.17;;;21.70;99.90;;;;;;4929874;28;20047;-77
2021/07/28 05:49:29;;;;;;;4.82;2.00;;;21.80;99.90;;;;;;4931858;29;20471;-79
2021/07/28 05:51:55;;;;;;;4.20;2.50;;;21.70;99.90;;;;;;4913650;29;20036;-79
2021/07/28 05:54:21;;;;;;;4.32;2.50;;;21.70;99.90;;;;;;4912539;29;20476;-79
2021/07/28 05:56:48;;;;;;;5.05;2.20;;;21.70;99.90;;;;;;4920193;28;20130;-75
2021/07/28 05:59:14;;;;;;;2.58;1.77;;;21.70;99.90;;;;;;4920639;29;20059;-79
2021/07/28 06:01:40;;;;;;;3.40;2.13;;;21.70;99.90;;;;;;4931878;28;20023;-77
2021/07/28 06:04:05;;;;;;;5.15;2.13;;;21.70;99.90;;;;;;4916440;28;20086;-77
2021/07/28 06:06:31;;;;;;;4.80;2.00;;;21.70;99.90;;;;;;4926618;29;20043;-77
2021/07/28 06:08:56;;;;;;;4.07;2.10;;;21.70;99.90;;;;;;4931761;29;20055;-76
2021/07/28 06:11:22;;;;;;;3.72;1.75;;;21.70;99.90;;;;;;4931323;29;20024;-75
2021/07/28 06:13:48;;;;;;;4.32;1.83;;;21.70;99.90;;;;;;4929784;29;20059;-77
2021/07/28 06:16:14;;;;;;;4.70;2.15;;;21.70;99.90;;;;;;4930804;29;20114;-75
2021/07/28 06:18:40;;;;;;;3.92;1.88;;;21.70;99.90;;;;;;4930494;28;20130;-75
2021/07/28 06:21:05;;;;;;;4.43;2.13;;;21.70;99.90;;;;;;4919968;29;20404;-75
2021/07/28 06:23:31;;;;;;;5.53;2.10;;;21.70;99.90;;;;;;4912389;29;20028;-74
2021/07/28 06:25:57;;;;;;;4.75;2.03;;;21.70;99.90;;;;;;4915109;28;20039;-79
2021/07/28 06:28:23;;;;;;;3.30;1.50;;;21.70;99.90;;;;;;4920441;28;20038;-75
2021/07/28 06:30:51;;;;;;;6.68;2.40;;;21.70;99.90;;;;;;4931066;29;20093;-79
2021/07/28 06:33:17;;;;;;;4.35;2.00;;;21.70;99.90;;;;;;4931155;28;20028;-76
2021/07/28 06:35:42;;;;;;;5.38;2.20;;;21.70;99.90;;;;;;4923489;29;20033;-80
2021/07/28 06:38:08;;;;;;;3.80;1.98;;;21.70;99.90;;;;;;4912664;28;20040;-76
2021/07/28 06:40:34;;;;;;;2.97;1.88;;;21.70;99.90;;;;;;4912976;29;20028;-78
2021/07/28 06:43:00;;;;;;;3.35;1.88;;;21.70;99.90;;;;;;4929182;29;20031;-75
2021/07/28 06:45:25;;;;;;;3.85;1.73;;;21.70;99.90;;;;;;4929189;29;20035;-77
2021/07/28 06:47:51;;;;;;;4.95;2.45;;;21.70;99.90;;;;;;4931213;29;20093;-76
2021/07/28 06:50:19;;;;;;;2.78;1.63;;;21.70;99.90;;;;;;4929731;29;20023;-76
2021/07/28 06:52:46;;;;;;;3.88;2.30;;;21.60;99.90;;;;;;4929715;29;20111;-76
2021/07/28 06:55:12;;;;;;;4.30;2.00;;;21.60;99.80;;;;;;4929728;29;20031;-76
2021/07/28 06:57:37;;;;;;;5.00;1.80;;;21.70;99.80;;;;;;4929997;29;20415;-75
2021/07/28 07:00:05;;;;;;;3.58;1.95;;;21.60;99.80;;;;;;4927670;28;20686;-75
2021/07/28 07:02:32;;;;;;;4.00;1.95;;;21.60;99.80;;;;;;4930844;28;20055;-76
2021/07/28 07:04:57;;;;;;;4.18;1.90;;;21.60;99.80;;;;;;4928448;29;20026;-74
2021/07/28 07:07:23;;;;;;;4.43;1.92;;;21.60;99.80;;;;;;4922435;28;20024;-77
2021/07/28 07:09:52;;;;;;;4.20;1.77;;;21.70;99.80;;;;;;4916070;28;20034;-77
2021/07/28 07:12:18;;;;;;;4.20;2.25;;;21.60;99.80;;;;;;4928005;28;20024;-77
2021/07/28 07:14:45;;;;;;;5.90;2.05;;;21.60;99.80;;;;;;4912459;29;20025;-76
2021/07/28 07:17:10;;;;;;;4.65;1.90;;;21.60;99.80;;;;;;4911964;29;20047;-77
2021/07/28 07:19:36;;;;;;;3.15;1.83;;;21.60;99.80;;;;;;4911470;29;20108;-78
2021/07/28 07:22:02;;;;;;;4.95;1.90;;;21.60;99.80;;;;;;4924366;28;20484;-78
2021/07/28 07:24:27;;;;;;;5.93;2.20;;;21.60;99.80;;;;;;4930405;29;20020;-80
2021/07/28 07:26:53;;;;;;;4.82;1.60;;;21.60;99.80;;;;;;4918922;28;20131;-80
2021/07/28 07:29:18;;;;;;;6.22;2.08;;;21.60;99.70;;;;;;4913550;29;20027;-81
2021/07/28 07:31:44;;;;;;;3.88;2.08;;;21.60;99.70;;;;;;4929070;29;20039;-81
2021/07/28 07:34:10;;;;;;;4.50;2.25;;;21.60;99.70;;;;;;4920465;28;20032;-80
2021/07/28 07:36:36;;;;;;;4.82;2.20;;;21.60;99.70;;;;;;4919540;29;20126;-78
2021/07/28 07:39:03;;;;;;;5.03;2.20;;;21.60;99.70;;;;;;4934005;29;20024;-79
2021/07/28 07:41:29;;;;;;;4.53;2.03;;;21.60;99.70;;;;;;4922652;29;20570;-79
2021/07/28 07:43:57;;;;;;;3.65;1.70;;;21.60;99.70;;;;;;4929222;29;20377;-82
2021/07/28 07:46:23;;;;;;;6.45;2.30;;;21.60;99.70;;;;;;4931873;29;20034;-81
2021/07/28 07:48:48;;;;;;;2.85;2.20;;;21.60;99.60;;;;;;4932964;28;20031;-82
2021/07/28 07:51:14;;;;;;;3.65;1.92;;;21.60;99.70;;;;;;4927529;29;20498;-80
2021/07/28 07:53:40;;;;;;;4.75;1.83;;;21.60;99.70;;;;;;4914686;29;20032;-78
2021/07/28 07:56:06;;;;;;;6.45;2.38;;;21.70;99.70;;;;;;4926713;29;20044;-80
2021/07/28 07:58:33;;;;;;;6.47;2.28;;;21.70;99.90;;;;;;4926586;29;20035;-80
2021/07/28 08:01:04;;;;;;;4.45;2.30;;;21.70;99.70;;;;;;4925955;29;20449;-76
2021/07/28 08:03:30;;;;;;;4.97;2.20;;;21.70;99.70;;;;;;4925527;29;20039;-79
2021/07/28 08:05:55;;;;;;;5.53;2.08;;;21.70;99.70;;;;;;4915428;29;20112;-80
2021/07/28 08:08:21;;;;;;;5.88;2.28;;;21.70;99.70;;;;;;4914037;29;20028;-78
2021/07/28 08:10:46;;;;;;;3.92;2.00;;;21.80;99.70;;;;;;4914276;29;20028;-77
2021/07/28 08:13:12;;;;;;;3.58;1.85;;;21.80;99.70;;;;;;4933348;29;20024;-74
2021/07/28 08:15:38;;;;;;;7.40;2.50;;;21.80;99.70;;;;;;4930270;29;20107;-84
2021/07/28 08:18:04;;;;;;;7.38;2.10;;;21.90;99.70;;;;;;4928277;29;20495;-81
2021/07/28 08:20:30;;;;;;;7.60;2.35;;;21.80;99.60;;;;;;4916647;28;20035;-85
2021/07/28 08:22:55;;;;;;;12.63;5.28;;;21.80;99.50;;;;;;4914032;28;20036;-81
2021/07/28 08:25:21;;;;;;;6.53;3.35;;;21.80;99.50;;;;;;4914741;29;20502;-78
2021/07/28 08:27:46;;;;;;;6.68;3.20;;;21.90;99.40;;;;;;4929143;29;20101;-83
2021/07/28 08:30:13;;;;;;;7.18;2.72;;;21.90;99.10;;;;;;4920779;28;20078;-81
2021/07/28 08:32:40;;;;;;;7.20;2.85;;;21.90;99.00;;;;;;4933319;29;20471;-82
2021/07/28 08:35:05;;;;;;;10.23;2.90;;;22.00;98.90;;;;;;4933290;29;20126;-78
2021/07/28 08:37:31;;;;;;;11.32;3.05;;;22.00;99.20;;;;;;4915830;29;20060;-81
2021/07/28 08:39:57;;;;;;;6.40;2.95;;;22.00;99.20;;;;;;4913877;29;20039;-78
2021/07/28 08:42:27;;;;;;;6.50;2.55;;;22.00;99.30;;;;;;4913810;29;20025;-81
2021/07/28 08:44:52;;;;;;;10.82;2.80;;;22.00;99.30;;;;;;4914533;29;20024;-77
2021/07/28 08:47:19;;;;;;;8.82;3.45;;;22.10;99.10;;;;;;4931725;29;20030;-80
2021/07/28 08:49:45;;;;;;;5.40;3.20;;;22.10;99.00;;;;;;4919870;29;20051;-79
2021/07/28 08:52:12;;;;;;;37.97;10.55;;;22.10;98.80;;;;;;4914124;28;20021;-80
2021/07/28 08:54:37;;;;;;;13.73;4.72;;;22.10;98.90;;;;;;4922906;28;20111;-76
2021/07/28 08:57:04;;;;;;;9.15;3.83;;;22.10;98.90;;;;;;4945540;29;20122;-79
2021/07/28 08:59:32;;;;;;;11.48;3.88;;;22.10;98.80;;;;;;4917332;28;20035;-79
2021/07/28 09:01:59;;;;;;;11.30;3.83;;;22.10;98.60;;;;;;4928484;28;20036;-74
2021/07/28 09:04:26;;;;;;;11.45;3.97;;;22.10;98.60;;;;;;4926303;29;20077;-80
2021/07/28 09:06:53;;;;;;;13.52;4.00;;;22.20;98.60;;;;;;4976515;28;20100;-79
2021/07/28 09:09:19;;;;;;;18.88;5.15;;;22.20;98.50;;;;;;4942718;28;20036;-76
2021/07/28 09:11:59;;;;;;;17.90;4.38;;;22.20;98.40;;;;;;4931750;29;20081;-80
2021/07/28 09:14:29;;;;;;;10.63;4.68;;;22.20;98.40;;;;;;4919360;29;20472;-80
2021/07/28 09:17:23;;;;;;;13.30;3.88;;;22.20;98.30;;;;;;4915983;29;20474;-78
2021/07/28 09:19:50;;;;;;;11.35;3.75;;;22.20;98.10;;;;;;4974031;28;20020;-77
2021/07/28 09:22:19;;;;;;;10.68;3.83;;;22.30;98.00;;;;;;4925080;29;20114;-79
2021/07/28 09:24:48;;;;;;;10.20;3.70;;;22.30;98.00;;;;;;4922346;29;20549;-75
2021/07/28 09:27:37;;;;;;;11.10;3.35;;;22.30;97.90;;;;;;4922006;29;20178;-80
2021/07/28 09:30:03;;;;;;;7.55;3.03;;;22.30;98.10;;;;;;4930190;29;20027;-76
2021/07/28 09:32:32;;;;;;;13.32;3.45;;;22.30;98.10;;;;;;4929255;29;20551;-74
2021/07/28 09:34:58;;;;;;;9.93;2.83;;;22.30;98.10;;;;;;4919731;28;20024;-79
2021/07/28 09:37:24;;;;;;;9.90;2.90;;;22.20;97.70;;;;;;4931654;29;20043;-80
2021/07/28 09:39:51;;;;;;;8.80;2.58;;;22.20;97.80;;;;;;4932081;29;20020;-78
2021/07/28 09:42:19;;;;;;;8.25;2.67;;;22.20;97.40;;;;;;4930439;28;20030;-80
2021/07/28 09:44:46;;;;;;;12.23;3.05;;;22.20;97.20;;;;;;4928864;28;20024;-78
2021/07/28 09:47:16;;;;;;;11.70;3.00;;;22.20;97.30;;;;;;4912672;29;20558;-75
2021/07/28 09:49:46;;;;;;;9.88;3.10;;;22.20;97.40;;;;;;4932837;28;20047;-75
2021/07/28 09:52:34;;;;;;;9.32;2.30;;;22.20;97.30;;;;;;4928109;28;20038;-76
2021/07/28 09:55:24;;;;;;;9.18;2.50;;;22.20;97.20;;;;;;4932192;28;20035;-75
2021/07/28 09:57:57;;;;;;;8.15;2.50;;;22.20;97.10;;;;;;4929838;29;20054;-76
2021/07/28 10:00:27;;;;;;;10.25;2.75;;;22.20;97.10;;;;;;4921523;29;20027;-75
2021/07/28 10:02:53;;;;;;;4.65;2.10;;;22.20;97.00;;;;;;4921616;29;20110;-74
2021/07/28 10:05:19;;;;;;;7.53;2.75;;;22.10;97.10;;;;;;4925753;29;20027;-76
2021/07/28 10:07:49;;;;;;;6.80;2.33;;;22.10;96.90;;;;;;4933907;28;20058;-78
2021/07/28 10:10:17;;;;;;;7.57;2.28;;;22.00;97.00;;;;;;4927096;29;20024;-75
2021/07/28 10:12:44;;;;;;;11.35;2.40;;;21.90;97.40;;;;;;4930766;28;20027;-80
2021/07/28 10:15:10;;;;;;;6.43;2.08;;;21.90;97.50;;;;;;4928241;29;20027;-80
2021/07/28 10:17:41;;;;;;;5.30;2.30;;;21.90;97.40;;;;;;4927338;29;20114;-80
2021/07/28 10:20:09;;;;;;;8.57;2.40;;;21.90;97.30;;;;;;4924606;29;20089;-78
2021/07/28 10:22:40;;;;;;;14.80;2.72;;;21.90;97.20;;;;;;4919469;28;20059;-79
2021/07/28 10:25:16;;;;;;;6.47;2.83;;;21.80;97.10;;;;;;4930121;29;20020;-78
2021/07/28 10:27:52;;;;;;;6.38;2.70;;;21.80;97.30;;;;;;4930439;29;20085;-76
2021/07/28 10:30:21;;;;;;;10.60;2.97;;;21.80;97.50;;;;;;4930206;29;20384;-78
2021/07/28 10:32:47;;;;;;;6.75;2.60;;;21.80;97.80;;;;;;4929728;28;20046;-80
2021/07/28 10:35:22;;;;;;;9.98;3.10;;;21.80;98.00;;;;;;4925545;29;20028;-80
2021/07/28 10:37:48;;;;;;;6.90;3.60;;;21.80;98.30;;;;;;4930473;28;20031;-78
2021/07/28 10:40:32;;;;;;;11.40;3.50;;;21.80;98.30;;;;;;4944362;28;20102;-79
2021/07/28 10:43:00;;;;;;;8.50;3.30;;;21.80;98.40;;;;;;4927498;29;20150;-82
2021/07/28 10:45:40;;;;;;;8.73;3.33;;;21.70;98.80;;;;;;4938890;28;20024;-80
2021/07/28 10:48:06;;;;;;;6.25;2.50;;;21.70;98.50;;;;;;4928179;29;20028;-79
2021/07/28 10:50:33;;;;;;;5.38;2.33;;;21.70;98.40;;;;;;4935286;29;20032;-80
2021/07/28 10:53:01;;;;;;;5.07;2.40;;;21.70;98.50;;;;;;4929088;29;20016;-81
2021/07/28 10:55:28;;;;;;;5.05;1.80;;;21.70;98.80;;;;;;4927573;28;20085;-81
2021/07/28 10:57:54;;;;;;;6.60;2.20;;;21.60;99.10;;;;;;4927521;29;20036;-79
2021/07/28 11:00:43;;;;;;;4.57;1.90;;;21.60;99.10;;;;;;4924364;29;20024;-79
2021/07/28 11:03:08;;;;;;;6.43;1.58;;;21.60;99.20;;;;;;4929638;29;20066;-80
2021/07/28 11:05:41;;;;;;;4.72;1.42;;;21.50;99.10;;;;;;4928678;28;20502;-79
2021/07/28 11:08:08;;;;;;;4.85;1.73;;;21.50;99.00;;;;;;4928761;28;20035;-80
2021/07/28 11:10:45;;;;;;;5.30;1.83;;;21.50;99.10;;;;;;4950674;29;20039;-81
2021/07/28 11:13:16;;;;;;;6.70;1.85;;;21.50;99.10;;;;;;4931732;29;20028;-78
2021/07/28 11:15:58;;;;;;;7.10;1.40;;;21.60;99.10;;;;;;4925855;29;20035;-76
2021/07/28 11:18:44;;;;;;;4.10;1.80;;;21.70;99.20;;;;;;4929607;29;20028;-77
2021/07/28 11:21:38;;;;;;;6.68;1.88;;;21.70;99.20;;;;;;4931389;29;20031;-78
2021/07/28 11:24:06;;;;;;;4.40;1.80;;;21.80;99.40;;;;;;4940832;28;20151;-81
2021/07/28 11:26:47;;;;;;;5.55;1.55;;;21.80;99.60;;;;;;4930637;29;20024;-80
2021/07/28 11:29:18;;;;;;;6.63;2.13;;;21.80;99.80;;;;;;4925416;29;20167;-80
2021/07/28 11:31:46;;;;;;;5.25;1.98;;;21.90;99.80;;;;;;4930762;29;20036;-79
2021/07/28 11:34:14;;;;;;;8.95;2.00;;;21.90;99.80;;;;;;4933559;29;20031;-79
2021/07/28 11:36:43;;;;;;;5.32;1.50;;;21.90;99.80;;;;;;4933340;29;20057;-77
2021/07/28 11:39:10;;;;;;;4.15;1.48;;;21.90;99.70;;;;;;4928887;28;20055;-76
2021/07/28 11:41:36;;;;;;;6.38;1.42;;;21.90;99.70;;;;;;4938672;28;20111;-79
2021/07/28 11:44:02;;;;;;;6.10;1.75;;;21.90;99.70;;;;;;4932125;28;20107;-76
2021/07/28 11:46:27;;;;;;;4.75;1.45;;;21.90;99.70;;;;;;4930524;29;20495;-82
2021/07/28 11:48:57;;;;;;;4.90;1.63;;;22.00;99.70;;;;;;4932143;29;20063;-78
2021/07/28 11:51:24;;;;;;;6.65;1.75;;;21.90;99.70;;;;;;4932710;29;20035;-78
2021/07/28 11:54:06;;;;;;;7.20;1.65;;;22.00;99.90;;;;;;4931257;29;20031;-77
2021/07/28 11:56:32;;;;;;;4.78;1.73;;;22.00;99.80;;;;;;4930468;29;20036;-78
2021/07/28 11:58:57;;;;;;;6.20;1.50;;;22.00;99.70;;;;;;4930734;28;20036;-78
2021/07/28 12:01:23;;;;;;;4.80;1.88;;;22.10;99.60;;;;;;4930898;29;20038;-78
2021/07/28 12:03:57;;;;;;;6.60;1.90;;;22.10;99.50;;;;;;4932216;29;20024;-77
2021/07/28 12:06:37;;;;;;;5.93;1.63;;;22.10;99.40;;;;;;4930987;29;20020;-78
2021/07/28 12:09:07;;;;;;;6.30;1.42;;;22.20;99.40;;;;;;4931186;29;20038;-78
2021/07/28 12:12:02;;;;;;;2.65;1.30;;;22.30;99.30;;;;;;4932358;29;20114;-78
2021/07/28 12:14:39;;;;;;;4.13;1.70;;;22.30;99.10;;;;;;4932495;29;20024;-78
2021/07/28 12:17:17;;;;;;;3.50;1.35;;;22.30;99.10;;;;;;4931171;29;20048;-78
2021/07/28 12:20:09;;;;;;;5.20;1.45;;;22.30;99.10;;;;;;4932115;28;20024;-78
2021/07/28 12:22:39;;;;;;;4.45;1.35;;;22.30;99.10;;;;;;4932360;29;20027;-78
2021/07/28 12:25:27;;;;;;;3.10;1.67;;;22.40;99.10;;;;;;4932495;28;20042;-78
2021/07/28 12:27:53;;;;;;;7.50;2.28;;;22.40;99.00;;;;;;4932300;28;20050;-78
2021/07/28 12:30:21;;;;;;;4.40;1.60;;;22.40;98.90;;;;;;4932400;29;20500;-78
2021/07/28 12:32:49;;;;;;;3.55;1.35;;;22.40;98.90;;;;;;4932157;29;20080;-78
2021/07/28 12:35:14;;;;;;;3.85;1.50;;;22.40;98.90;;;;;;4932000;28;20027;-78
2021/07/28 12:37:41;;;;;;;4.25;1.58;;;22.40;99.30;;;;;;4932658;28;20048;-77
2021/07/28 12:40:08;;;;;;;5.45;1.88;;;22.40;98.90;;;;;;4932330;28;20066;-78
2021/07/28 12:42:34;;;;;;;5.47;2.00;;;22.40;98.80;;;;;;4946703;28;20507;-78
2021/07/28 12:44:59;;;;;;;5.18;1.63;;;22.40;98.80;;;;;;4958570;28;20097;-78
2021/07/28 12:47:25;;;;;;;3.38;1.88;;;22.40;98.80;;;;;;4951058;29;20028;-78
2021/07/28 12:49:52;;;;;;;2.50;1.50;;;22.40;98.80;;;;;;4950925;29;20039;-78
2021/07/28 12:52:18;;;;;;;4.38;1.60;;;22.40;98.70;;;;;;4950868;29;20024;-78